sensor_id;sensor_type;location;lat;lon;timestamp;P1;durP1;ratioP1;P2;durP2;ratioP2
72645;SDS011;60687;53.876;10.674;2023-07-24T00:05:09;6.78;;;2.45;;
72645;SDS011;60687;53.876;10.674;2023-07-24T00:15:13;7.75;;;2.28;;
72645;SDS011;60687;53.876;10.674;2023-07-24T00:25:15;6.40;;;2.30;;
72645;SDS011;60687;53.876;10.674;2023-07-24T00:35:19;6.77;;;2.70;;
72645;SDS011;60687;53.876;10.674;2023-07-24T00:45:22;6.30;;;2.60;;
72645;SDS011;60687;53.876;10.674;2023-07-24T00:55:26;8.37;;;2.37;;
72645;SDS011;60687;53.876;10.674;2023-07-24T01:05:29;6.40;;;2.50;;
72645;SDS011;60687;53.876;10.674;2023-07-24T01:15:34;5.93;;;2.30;;
72645;SDS011;60687;53.876;10.674;2023-07-24T01:25:46;6.40;;;2.10;;
72645;SDS011;60687;53.876;10.674;2023-07-24T01:35:55;7.40;;;2.43;;
72645;SDS011;60687;53.876;10.674;2023-07-24T01:46:01;6.38;;;2.38;;
72645;SDS011;60687;53.876;10.674;2023-07-24T01:56:04;7.10;;;2.22;;
72645;SDS011;60687;53.876;10.674;2023-07-24T02:06:07;6.23;;;2.23;;
72645;SDS011;60687;53.876;10.674;2023-07-24T02:16:10;6.60;;;2.57;;
72645;SDS011;60687;53.876;10.674;2023-07-24T02:26:14;6.28;;;2.28;;
72645;SDS011;60687;53.876;10.674;2023-07-24T02:36:16;7.23;;;2.80;;
72645;SDS011;60687;53.876;10.674;2023-07-24T02:46:20;6.80;;;2.80;;
72645;SDS011;60687;53.876;10.674;2023-07-24T02:56:25;6.80;;;2.80;;
72645;SDS011;60687;53.876;10.674;2023-07-24T03:06:30;7.60;;;2.80;;
72645;SDS011;60687;53.876;10.674;2023-07-24T03:16:33;7.23;;;2.63;;
72645;SDS011;60687;53.876;10.674;2023-07-24T03:26:36;6.60;;;2.80;;
72645;SDS011;60687;53.876;10.674;2023-07-24T03:36:39;7.97;;;3.30;;
72645;SDS011;60687;53.876;10.674;2023-07-24T03:46:45;7.77;;;3.63;;
72645;SDS011;60687;53.876;10.674;2023-07-24T03:56:47;7.27;;;3.47;;
72645;SDS011;60687;53.876;10.674;2023-07-24T04:06:51;10.18;;;4.40;;
72645;SDS011;60687;53.876;10.674;2023-07-24T04:16:55;8.60;;;4.50;;
72645;SDS011;60687;53.876;10.674;2023-07-24T04:26:58;7.87;;;3.90;;
72645;SDS011;60687;53.876;10.674;2023-07-24T04:37:01;10.13;;;4.68;;
72645;SDS011;60687;53.876;10.674;2023-07-24T04:47:05;9.43;;;4.20;;
72645;SDS011;60687;53.876;10.674;2023-07-24T04:57:07;8.77;;;3.90;;
72645;SDS011;60687;53.876;10.674;2023-07-24T05:07:11;8.15;;;4.13;;
72645;SDS011;60687;53.876;10.674;2023-07-24T05:17:13;7.47;;;3.70;;
72645;SDS011;60687;53.876;10.674;2023-07-24T05:27:17;9.30;;;4.30;;
72645;SDS011;60687;53.876;10.674;2023-07-24T05:37:19;9.13;;;4.70;;
72645;SDS011;60687;53.876;10.674;2023-07-24T05:47:23;8.50;;;4.13;;
72645;SDS011;60687;53.876;10.674;2023-07-24T05:57:25;8.87;;;4.27;;
72645;SDS011;60687;53.876;10.674;2023-07-24T06:07:29;9.23;;;4.47;;
72645;SDS011;60687;53.876;10.674;2023-07-24T06:17:32;8.73;;;4.13;;
72645;SDS011;60687;53.876;10.674;2023-07-24T06:27:36;8.17;;;4.00;;
72645;SDS011;60687;53.876;10.674;2023-07-24T06:37:38;8.10;;;3.93;;
72645;SDS011;60687;53.876;10.674;2023-07-24T06:47:42;9.13;;;4.57;;
72645;SDS011;60687;53.876;10.674;2023-07-24T06:57:44;8.40;;;4.20;;
72645;SDS011;60687;53.876;10.674;2023-07-24T07:07:48;9.40;;;5.10;;
72645;SDS011;60687;53.876;10.674;2023-07-24T07:17:50;10.40;;;4.63;;
72645;SDS011;60687;53.876;10.674;2023-07-24T07:27:53;9.00;;;4.28;;
72645;SDS011;60687;53.876;10.674;2023-07-24T07:37:56;9.10;;;4.70;;
72645;SDS011;60687;53.876;10.674;2023-07-24T07:47:59;8.80;;;4.17;;
72645;SDS011;60687;53.876;10.674;2023-07-24T07:58:02;8.65;;;4.32;;
72645;SDS011;60687;53.876;10.674;2023-07-24T08:08:06;8.17;;;4.03;;
72645;SDS011;60687;53.876;10.674;2023-07-24T08:18:08;7.57;;;3.60;;
72645;SDS011;60687;53.876;10.674;2023-07-24T08:28:12;8.10;;;4.15;;
72645;SDS011;60687;53.876;10.674;2023-07-24T08:38:14;7.87;;;3.87;;
72645;SDS011;60687;53.876;10.674;2023-07-24T08:48:18;8.90;;;4.27;;
72645;SDS011;60687;53.876;10.674;2023-07-24T08:58:21;8.20;;;3.95;;
72645;SDS011;60687;53.876;10.674;2023-07-24T09:08:32;8.23;;;3.83;;
72645;SDS011;60687;53.876;10.674;2023-07-24T09:18:38;9.13;;;4.10;;
72645;SDS011;60687;53.876;10.674;2023-07-24T09:28:50;9.10;;;4.37;;
72645;SDS011;60687;53.876;10.674;2023-07-24T09:38:59;10.00;;;4.60;;
72645;SDS011;60687;53.876;10.674;2023-07-24T09:49:03;8.30;;;4.60;;
72645;SDS011;60687;53.876;10.674;2023-07-24T09:59:05;9.60;;;4.57;;
72645;SDS011;60687;53.876;10.674;2023-07-24T10:09:09;8.80;;;4.78;;
72645;SDS011;60687;53.876;10.674;2023-07-24T10:19:14;9.13;;;4.70;;
72645;SDS011;60687;53.876;10.674;2023-07-24T10:29:19;7.87;;;4.53;;
72645;SDS011;60687;53.876;10.674;2023-07-24T10:39:22;8.00;;;4.25;;
72645;SDS011;60687;53.876;10.674;2023-07-24T10:49:25;7.97;;;4.10;;
72645;SDS011;60687;53.876;10.674;2023-07-24T10:59:37;7.80;;;3.70;;
72645;SDS011;60687;53.876;10.674;2023-07-24T11:09:41;7.57;;;3.67;;
72645;SDS011;60687;53.876;10.674;2023-07-24T11:19:44;8.40;;;3.70;;
72645;SDS011;60687;53.876;10.674;2023-07-24T11:29:48;8.13;;;3.70;;
72645;SDS011;60687;53.876;10.674;2023-07-24T11:39:57;7.27;;;3.17;;
72645;SDS011;60687;53.876;10.674;2023-07-24T11:50:02;7.78;;;3.42;;
72645;SDS011;60687;53.876;10.674;2023-07-24T12:00:05;8.03;;;3.97;;
72645;SDS011;60687;53.876;10.674;2023-07-24T12:10:26;7.10;;;3.00;;
72645;SDS011;60687;53.876;10.674;2023-07-24T12:20:30;7.72;;;3.58;;
72645;SDS011;60687;53.876;10.674;2023-07-24T12:30:34;6.40;;;2.50;;
72645;SDS011;60687;53.876;10.674;2023-07-24T12:40:36;7.53;;;2.67;;
72645;SDS011;60687;53.876;10.674;2023-07-24T12:50:40;7.22;;;3.13;;
72645;SDS011;60687;53.876;10.674;2023-07-24T13:00:42;7.10;;;3.10;;
72645;SDS011;60687;53.876;10.674;2023-07-24T13:10:45;7.60;;;3.17;;
72645;SDS011;60687;53.876;10.674;2023-07-24T13:20:48;7.43;;;2.87;;
72645;SDS011;60687;53.876;10.674;2023-07-24T13:30:52;8.25;;;3.03;;
72645;SDS011;60687;53.876;10.674;2023-07-24T13:40:55;7.90;;;2.80;;
72645;SDS011;60687;53.876;10.674;2023-07-24T13:50:59;7.20;;;3.00;;
72645;SDS011;60687;53.876;10.674;2023-07-24T14:01:01;7.70;;;2.53;;
72645;SDS011;60687;53.876;10.674;2023-07-24T14:11:07;7.27;;;2.93;;
72645;SDS011;60687;53.876;10.674;2023-07-24T14:21:10;6.37;;;2.40;;
72645;SDS011;60687;53.876;10.674;2023-07-24T14:31:15;6.50;;;2.58;;
72645;SDS011;60687;53.876;10.674;2023-07-24T14:41:18;6.33;;;2.53;;
72645;SDS011;60687;53.876;10.674;2023-07-24T14:51:22;6.20;;;2.60;;
72645;SDS011;60687;53.876;10.674;2023-07-24T15:01:26;6.97;;;2.80;;
72645;SDS011;60687;53.876;10.674;2023-07-24T15:11:30;10.60;;;3.17;;
72645;SDS011;60687;53.876;10.674;2023-07-24T15:21:33;6.97;;;3.00;;
72645;SDS011;60687;53.876;10.674;2023-07-24T15:31:37;8.70;;;3.50;;
72645;SDS011;60687;53.876;10.674;2023-07-24T15:41:41;7.53;;;2.97;;
72645;SDS011;60687;53.876;10.674;2023-07-24T15:51:44;8.33;;;2.90;;
72645;SDS011;60687;53.876;10.674;2023-07-24T16:01:47;10.80;;;4.37;;
72645;SDS011;60687;53.876;10.674;2023-07-24T16:11:50;8.00;;;3.57;;
72645;SDS011;60687;53.876;10.674;2023-07-24T16:21:53;10.57;;;4.33;;
72645;SDS011;60687;53.876;10.674;2023-07-24T16:42:33;6.57;;;1.70;;
72645;SDS011;60687;53.876;10.674;2023-07-24T16:52:35;6.53;;;2.00;;
72645;SDS011;60687;53.876;10.674;2023-07-24T17:02:39;7.57;;;2.35;;
72645;SDS011;60687;53.876;10.674;2023-07-24T17:12:42;7.63;;;2.30;;
72645;SDS011;60687;53.876;10.674;2023-07-24T17:22:46;7.83;;;2.83;;
72645;SDS011;60687;53.876;10.674;2023-07-24T17:32:49;7.18;;;2.85;;
72645;SDS011;60687;53.876;10.674;2023-07-24T17:42:52;6.93;;;2.70;;
72645;SDS011;60687;53.876;10.674;2023-07-24T17:52:54;8.03;;;2.67;;
72645;SDS011;60687;53.876;10.674;2023-07-24T18:02:58;7.03;;;2.70;;
72645;SDS011;60687;53.876;10.674;2023-07-24T18:13:01;8.07;;;3.30;;
72645;SDS011;60687;53.876;10.674;2023-07-24T18:23:05;7.27;;;2.50;;
72645;SDS011;60687;53.876;10.674;2023-07-24T18:33:07;6.57;;;2.70;;
72645;SDS011;60687;53.876;10.674;2023-07-24T18:43:12;7.43;;;2.90;;
72645;SDS011;60687;53.876;10.674;2023-07-24T18:53:14;6.80;;;2.60;;
72645;SDS011;60687;53.876;10.674;2023-07-24T19:03:18;7.00;;;2.50;;
72645;SDS011;60687;53.876;10.674;2023-07-24T19:13:20;8.38;;;3.03;;
72645;SDS011;60687;53.876;10.674;2023-07-24T19:23:24;7.38;;;3.15;;
72645;SDS011;60687;53.876;10.674;2023-07-24T19:33:26;7.43;;;3.40;;
72645;SDS011;60687;53.876;10.674;2023-07-24T19:43:31;7.40;;;2.80;;
72645;SDS011;60687;53.876;10.674;2023-07-24T19:53:34;7.32;;;2.88;;
72645;SDS011;60687;53.876;10.674;2023-07-24T20:03:38;7.33;;;3.00;;
72645;SDS011;60687;53.876;10.674;2023-07-24T20:13:40;7.83;;;2.97;;
72645;SDS011;60687;53.876;10.674;2023-07-24T20:23:45;7.50;;;3.33;;
72645;SDS011;60687;53.876;10.674;2023-07-24T20:33:48;10.80;;;3.50;;
72645;SDS011;60687;53.876;10.674;2023-07-24T20:43:52;7.70;;;3.80;;
72645;SDS011;60687;53.876;10.674;2023-07-24T20:53:54;8.82;;;3.58;;
72645;SDS011;60687;53.876;10.674;2023-07-24T21:04:00;10.70;;;5.35;;
72645;SDS011;60687;53.876;10.674;2023-07-24T21:14:02;9.53;;;3.97;;
72645;SDS011;60687;53.876;10.674;2023-07-24T21:24:06;8.17;;;2.60;;
72645;SDS011;60687;53.876;10.674;2023-07-24T21:34:09;6.53;;;2.40;;
72645;SDS011;60687;53.876;10.674;2023-07-24T21:44:13;7.77;;;2.60;;
72645;SDS011;60687;53.876;10.674;2023-07-24T21:54:16;6.80;;;2.20;;
72645;SDS011;60687;53.876;10.674;2023-07-24T22:04:20;6.72;;;2.00;;
72645;SDS011;60687;53.876;10.674;2023-07-24T22:14:22;5.40;;;1.80;;
72645;SDS011;60687;53.876;10.674;2023-07-24T22:24:26;8.97;;;2.27;;
72645;SDS011;60687;53.876;10.674;2023-07-24T22:34:29;8.18;;;2.30;;
72645;SDS011;60687;53.876;10.674;2023-07-24T22:44:35;6.90;;;1.88;;
72645;SDS011;60687;53.876;10.674;2023-07-24T22:54:37;5.73;;;1.87;;
72645;SDS011;60687;53.876;10.674;2023-07-24T23:04:41;6.70;;;1.70;;
72645;SDS011;60687;53.876;10.674;2023-07-24T23:14:43;6.82;;;1.85;;
72645;SDS011;60687;53.876;10.674;2023-07-24T23:24:47;5.60;;;2.00;;
72645;SDS011;60687;53.876;10.674;2023-07-24T23:34:51;7.67;;;1.90;;
72645;SDS011;60687;53.876;10.674;2023-07-24T23:44:58;6.35;;;2.05;;
72645;SDS011;60687;53.876;10.674;2023-07-24T23:55:01;6.43;;;1.80;;
